createdAt,value
2018-05-24T00:00:09.194Z,16.10
2018-05-24T00:01:09.185Z,15.20
2018-05-24T00:02:09.182Z,17.00
2018-05-24T00:03:09.179Z,15.80
2018-05-24T00:04:09.181Z,16.40
2018-05-24T00:05:09.174Z,15.30
2018-05-24T00:06:09.173Z,15.20
2018-05-24T00:07:09.166Z,14.80
2018-05-24T00:08:09.222Z,16.60
2018-05-24T00:09:09.161Z,15.40
2018-05-24T00:10:09.160Z,14.90
2018-05-24T00:11:09.158Z,14.30
2018-05-24T00:12:09.153Z,15.10
2018-05-24T00:13:09.149Z,15.10
2018-05-24T00:14:09.148Z,14.10
2018-05-24T00:15:09.144Z,13.40
2018-05-24T00:16:09.140Z,13.90
2018-05-24T00:17:09.145Z,14.00
2018-05-24T00:18:09.135Z,13.90
2018-05-24T00:19:09.134Z,12.90
2018-05-24T00:20:09.134Z,14.10
2018-05-24T00:21:09.126Z,14.80
2018-05-24T00:22:09.133Z,11.50
2018-05-24T00:23:09.125Z,13.10
2018-05-24T00:24:09.115Z,11.30
2018-05-24T00:25:09.118Z,13.30
2018-05-24T00:26:09.115Z,13.50
2018-05-24T00:27:09.106Z,12.00
2018-05-24T00:28:09.105Z,12.00
2018-05-24T00:29:09.101Z,11.70
2018-05-24T00:30:09.098Z,11.20
2018-05-24T00:31:09.102Z,11.10
2018-05-24T00:32:09.093Z,13.90
2018-05-24T00:33:09.089Z,9.90
2018-05-24T00:34:09.092Z,10.30
2018-05-24T00:35:09.087Z,11.20
2018-05-24T00:36:09.081Z,10.50
2018-05-24T00:37:09.076Z,10.70
2018-05-24T00:38:09.080Z,11.80
2018-05-24T00:39:09.073Z,11.70
2018-05-24T00:40:09.071Z,10.60
2018-05-24T00:41:09.072Z,10.80
2018-05-24T00:42:09.063Z,9.80
2018-05-24T00:43:09.058Z,9.80
2018-05-24T00:44:09.061Z,9.90
2018-05-24T00:45:09.051Z,9.90
2018-05-24T00:46:09.054Z,9.00
2018-05-24T00:47:09.050Z,9.30
2018-05-24T00:48:09.050Z,9.40
2018-05-24T00:49:09.040Z,9.90
2018-05-24T00:50:09.056Z,8.70
2018-05-24T00:51:09.037Z,8.70
2018-05-24T00:52:09.031Z,8.50
2018-05-24T00:53:09.027Z,8.50
2018-05-24T00:54:09.025Z,7.40
2018-05-24T00:55:09.024Z,7.70
2018-05-24T00:56:09.022Z,7.50
2018-05-24T00:57:09.018Z,8.90
2018-05-24T00:58:09.015Z,8.40
2018-05-24T00:59:09.009Z,7.20
2018-05-24T01:00:09.005Z,7.10
2018-05-24T01:01:09.008Z,6.80
2018-05-24T01:02:09.000Z,7.30
2018-05-24T01:03:09.002Z,6.90
2018-05-24T01:04:09.005Z,7.20
2018-05-24T01:05:08.991Z,9.60
2018-05-24T01:06:08.991Z,6.90
2018-05-24T01:07:08.988Z,8.00
2018-05-24T01:08:08.984Z,9.00
2018-05-24T01:09:08.991Z,6.80
2018-05-24T01:10:08.977Z,7.60
2018-05-24T01:11:08.980Z,6.70
2018-05-24T01:12:08.969Z,6.30
2018-05-24T01:13:08.964Z,7.20
2018-05-24T01:14:08.966Z,7.20
2018-05-24T01:15:08.958Z,6.60
2018-05-24T01:16:08.954Z,7.70
2018-05-24T01:17:08.952Z,7.40
2018-05-24T01:18:08.949Z,5.90
2018-05-24T01:19:08.949Z,7.40
2018-05-24T01:20:08.943Z,7.30
2018-05-24T01:21:08.940Z,6.60
2018-05-24T01:22:08.940Z,6.10
2018-05-24T01:23:08.932Z,6.20
2018-05-24T01:24:08.929Z,8.60
2018-05-24T01:25:08.931Z,8.30
2018-05-24T01:26:08.924Z,8.90
2018-05-24T01:27:08.923Z,6.20
2018-05-24T01:28:08.916Z,6.00
2018-05-24T01:29:08.917Z,8.30
2018-05-24T01:30:08.910Z,6.50
2018-05-24T01:31:08.905Z,7.80
2018-05-24T01:32:08.902Z,6.00
2018-05-24T01:33:08.902Z,6.50
2018-05-24T01:34:08.902Z,5.90
2018-05-24T01:35:08.895Z,6.00
2018-05-24T01:36:08.894Z,6.10
2018-05-24T01:37:08.889Z,6.30
2018-05-24T01:38:08.883Z,6.60
2018-05-24T01:39:08.884Z,7.50
2018-05-24T01:40:08.885Z,5.90
2018-05-24T01:41:08.873Z,7.50
2018-05-24T01:42:08.871Z,6.90
2018-05-24T01:43:08.870Z,9.40
2018-05-24T01:44:08.861Z,6.20
2018-05-24T01:45:08.867Z,5.90
2018-05-24T01:46:08.856Z,6.70
2018-05-24T01:47:08.858Z,7.10
2018-05-24T01:48:08.851Z,5.40
2018-05-24T01:49:08.850Z,5.80
2018-05-24T01:50:08.843Z,5.70
2018-05-24T01:51:08.840Z,5.60
2018-05-24T01:52:08.836Z,5.90
2018-05-24T01:53:08.833Z,7.20
2018-05-24T01:54:08.830Z,6.70
2018-05-24T01:55:08.831Z,5.70
2018-05-24T01:56:08.836Z,7.30
2018-05-24T01:57:08.821Z,5.80
2018-05-24T01:58:08.816Z,7.60
2018-05-24T01:59:08.813Z,6.20
2018-05-24T02:00:08.810Z,6.90
2018-05-24T02:01:08.805Z,5.90
2018-05-24T02:02:08.806Z,6.30
2018-05-24T02:03:08.804Z,6.30
2018-05-24T02:04:08.796Z,7.40
2018-05-24T02:05:08.801Z,6.00
2018-05-24T02:06:08.789Z,6.00
2018-05-24T02:07:08.789Z,6.60
2018-05-24T02:08:08.782Z,6.40
2018-05-24T02:09:08.784Z,7.00
2018-05-24T02:10:08.783Z,6.70
2018-05-24T02:11:08.772Z,6.10
2018-05-24T02:12:08.771Z,6.40
2018-05-24T02:13:08.775Z,5.90
2018-05-24T02:14:08.762Z,6.10
2018-05-24T02:15:08.758Z,10.00
2018-05-24T02:16:08.766Z,6.20
2018-05-24T02:17:08.757Z,6.60
2018-05-24T02:18:08.748Z,5.80
2018-05-24T02:19:08.744Z,6.80
2018-05-24T02:20:08.744Z,8.80
2018-05-24T02:21:08.738Z,7.30
2018-05-24T02:22:08.739Z,8.10
2018-05-24T02:23:08.735Z,7.40
2018-05-24T02:24:08.728Z,6.40
2018-05-24T02:25:08.729Z,6.50
2018-05-24T02:26:08.720Z,8.30
2018-05-24T02:27:08.717Z,5.80
2018-05-24T02:28:08.719Z,6.40
2018-05-24T02:29:08.757Z,6.70
2018-05-24T02:30:08.707Z,7.30
2018-05-24T02:31:08.710Z,6.70
2018-05-24T02:32:08.699Z,7.40
2018-05-24T02:33:08.697Z,6.10
2018-05-24T02:34:08.706Z,6.50
2018-05-24T02:35:08.688Z,10.10
2018-05-24T02:36:08.722Z,8.40
2018-05-24T02:37:08.683Z,7.40
2018-05-24T02:38:08.683Z,6.30
2018-05-24T02:39:08.674Z,6.70
2018-05-24T02:40:08.675Z,6.80
2018-05-24T02:41:08.675Z,7.00
2018-05-24T02:42:08.666Z,8.30
2018-05-24T02:43:08.659Z,6.80
2018-05-24T02:44:08.660Z,6.30
2018-05-24T02:45:08.655Z,7.10
2018-05-24T02:46:08.658Z,8.20
2018-05-24T02:47:08.651Z,7.20
2018-05-24T02:48:08.644Z,6.40
2018-05-24T02:49:08.638Z,6.60
2018-05-24T02:50:08.635Z,5.90
2018-05-24T02:51:08.635Z,6.00
2018-05-24T02:52:08.636Z,6.10
2018-05-24T02:53:08.628Z,6.60
2018-05-24T02:54:08.620Z,7.40
2018-05-24T02:55:08.621Z,6.10
2018-05-24T02:56:08.615Z,7.50
2018-05-24T02:57:08.609Z,6.00
2018-05-24T02:58:08.612Z,5.60
2018-05-24T02:59:08.608Z,6.20
2018-05-24T03:00:08.606Z,7.00
2018-05-24T03:01:08.595Z,6.70
2018-05-24T03:02:08.596Z,6.40
2018-05-24T03:03:08.587Z,6.50
2018-05-24T03:04:08.584Z,6.10
2018-05-24T03:05:08.581Z,5.90
2018-05-24T03:06:08.580Z,5.50
2018-05-24T03:07:08.572Z,6.60
2018-05-24T03:08:08.568Z,5.90
2018-05-24T03:09:08.566Z,5.50
2018-05-24T03:10:08.565Z,5.60
2018-05-24T03:11:08.560Z,6.80
2018-05-24T03:12:08.560Z,8.70
2018-05-24T03:13:08.550Z,7.40
2018-05-24T03:14:08.555Z,6.20
2018-05-24T03:15:08.544Z,7.20
2018-05-24T03:16:08.548Z,8.10
2018-05-24T03:17:08.542Z,5.90
2018-05-24T03:18:08.534Z,6.10
2018-05-24T03:19:08.532Z,7.40
2018-05-24T03:20:08.525Z,6.30
2018-05-24T03:21:08.525Z,8.10
2018-05-24T03:22:08.527Z,11.10
2018-05-24T03:23:08.520Z,6.10
2018-05-24T03:24:08.513Z,7.60
2018-05-24T03:25:08.508Z,5.70
2018-05-24T03:26:08.514Z,6.90
2018-05-24T03:27:08.500Z,7.00
2018-05-24T03:28:08.499Z,5.60
2018-05-24T03:29:08.494Z,6.60
2018-05-24T03:30:08.491Z,9.30
2018-05-24T03:31:08.493Z,6.60
2018-05-24T03:32:08.485Z,6.60
2018-05-24T03:33:08.478Z,6.90
2018-05-24T03:34:08.475Z,7.90
2018-05-24T03:35:08.502Z,8.10
2018-05-24T03:36:08.468Z,6.90
2018-05-24T03:37:08.469Z,6.50
2018-05-24T03:38:08.464Z,7.20
2018-05-24T03:39:08.461Z,6.80
2018-05-24T03:40:08.456Z,8.10
2018-05-24T03:41:08.456Z,6.70
2018-05-24T03:42:08.447Z,7.90
2018-05-24T03:43:08.445Z,7.00
2018-05-24T03:44:08.444Z,7.60
2018-05-24T03:45:08.441Z,7.60
2018-05-24T03:46:08.438Z,8.10
2018-05-24T03:47:08.429Z,8.30
2018-05-24T03:48:08.426Z,8.00
2018-05-24T03:49:08.427Z,8.10
2018-05-24T03:50:08.428Z,10.90
2018-05-24T03:51:08.422Z,8.00
2018-05-24T03:52:08.476Z,8.90
2018-05-24T03:53:08.413Z,9.20
2018-05-24T03:54:08.405Z,9.40
2018-05-24T03:55:08.405Z,10.10
2018-05-24T03:56:08.398Z,8.90
2018-05-24T03:57:08.401Z,9.00
2018-05-24T03:58:08.390Z,9.40
2018-05-24T03:59:08.391Z,8.80
2018-05-24T04:00:08.387Z,9.40
2018-05-24T04:01:08.383Z,10.60
2018-05-24T04:02:08.375Z,8.40
2018-05-24T04:03:08.371Z,8.90
2018-05-24T04:04:08.371Z,9.10
2018-05-24T04:05:08.364Z,8.90
2018-05-24T04:06:08.365Z,8.90
2018-05-24T04:07:08.364Z,10.20
2018-05-24T04:08:08.365Z,9.90
2018-05-24T04:09:08.350Z,9.40
2018-05-24T04:10:08.350Z,8.40
2018-05-24T04:11:08.349Z,10.60
2018-05-24T04:12:08.341Z,9.00
2018-05-24T04:13:08.344Z,8.00
2018-05-24T04:14:08.334Z,8.60
2018-05-24T04:15:08.336Z,8.70
2018-05-24T04:16:08.328Z,7.80
2018-05-24T04:17:08.324Z,8.50
2018-05-24T04:18:08.320Z,8.50
2018-05-24T04:19:08.317Z,9.60
2018-05-24T04:20:08.313Z,8.30
2018-05-24T04:21:08.311Z,8.50
2018-05-24T04:22:08.309Z,8.90
2018-05-24T04:23:08.329Z,8.80
2018-05-24T04:24:08.306Z,8.40
2018-05-24T04:25:08.298Z,8.20
2018-05-24T04:26:08.300Z,7.60
2018-05-24T04:27:08.340Z,7.80
2018-05-24T04:28:08.287Z,8.90
2018-05-24T04:29:08.286Z,10.90
2018-05-24T04:30:08.279Z,7.90
2018-05-24T04:31:08.275Z,8.70
2018-05-24T04:32:08.272Z,8.20
2018-05-24T04:33:08.453Z,8.80
2018-05-24T04:34:08.267Z,8.00
2018-05-24T04:35:08.264Z,8.10
2018-05-24T04:36:08.262Z,8.00
2018-05-24T04:37:08.255Z,9.20
2018-05-24T04:38:08.252Z,7.90
2018-05-24T04:39:08.248Z,8.40
2018-05-24T04:40:08.250Z,7.70
2018-05-24T04:41:08.245Z,9.00
2018-05-24T04:42:08.246Z,7.40
2018-05-24T04:43:08.234Z,8.30
2018-05-24T04:44:08.236Z,7.00
2018-05-24T04:45:08.230Z,7.80
2018-05-24T04:46:08.226Z,9.30
2018-05-24T04:47:08.228Z,7.50
2018-05-24T04:48:08.225Z,7.60
2018-05-24T04:49:08.218Z,7.60
2018-05-24T04:50:08.221Z,6.50
2018-05-24T04:51:08.220Z,10.30
2018-05-24T04:52:08.281Z,6.80
2018-05-24T04:53:08.214Z,6.00
2018-05-24T04:54:08.211Z,5.90
2018-05-24T04:55:08.211Z,6.90
2018-05-24T04:56:08.212Z,5.30
2018-05-24T04:57:08.218Z,5.80
2018-05-24T04:58:08.214Z,6.80
2018-05-24T04:59:08.213Z,7.50
2018-05-24T05:00:08.207Z,7.30
2018-05-24T05:01:08.211Z,6.10
2018-05-24T05:02:08.208Z,6.20
2018-05-24T05:03:08.208Z,7.10
2018-05-24T05:04:08.214Z,6.20
2018-05-24T05:05:08.213Z,7.30
2018-05-24T05:06:08.213Z,7.10
2018-05-24T05:07:08.215Z,7.20
2018-05-24T06:00:29.166Z,7.20
2018-05-24T06:01:29.074Z,7.50
2018-05-24T06:02:29.073Z,7.10
2018-05-24T06:03:29.073Z,5.80
2018-05-24T06:04:29.068Z,5.40
2018-05-24T06:05:29.066Z,5.60
2018-05-24T06:06:29.068Z,5.70
2018-05-24T06:07:29.063Z,5.20
2018-05-24T06:08:29.069Z,5.30
2018-05-24T06:09:29.062Z,7.90
2018-05-24T06:10:29.055Z,5.20
2018-05-24T06:11:29.058Z,6.10
2018-05-24T06:12:29.059Z,5.00
2018-05-24T06:13:29.055Z,5.40
2018-05-24T06:14:29.055Z,7.10
2018-05-24T06:15:29.079Z,6.60
2018-05-24T06:16:29.050Z,5.20
2018-05-24T06:17:29.049Z,5.30
2018-05-24T06:18:29.052Z,5.10
2018-05-24T06:19:29.052Z,6.90
2018-05-24T06:20:29.048Z,6.20
2018-05-24T06:21:29.061Z,5.00
2018-05-24T06:22:29.051Z,6.70
2018-05-24T06:23:29.050Z,4.80
2018-05-24T06:24:29.046Z,5.40
2018-05-24T06:25:29.044Z,5.10
2018-05-24T06:26:29.048Z,6.10
2018-05-24T06:27:29.043Z,5.40
2018-05-24T06:28:29.074Z,4.90
2018-05-24T06:29:29.052Z,4.50
2018-05-24T06:30:29.053Z,4.80
2018-05-24T06:31:29.040Z,8.10
2018-05-24T06:32:29.042Z,4.70
2018-05-24T06:33:29.049Z,5.90
2018-05-24T06:34:29.038Z,5.90
2018-05-24T06:35:29.036Z,5.30
2018-05-24T06:36:29.042Z,7.10
2018-05-24T06:37:29.040Z,5.10
2018-05-24T06:38:29.035Z,5.80
2018-05-24T06:39:29.036Z,6.80
2018-05-24T06:40:29.102Z,5.60
2018-05-24T06:41:29.042Z,8.10
2018-05-24T06:42:29.040Z,6.10
2018-05-24T06:43:29.038Z,6.30
2018-05-24T06:44:29.035Z,5.90
2018-05-24T06:45:29.035Z,5.40
2018-05-24T06:46:29.082Z,7.60
2018-05-24T06:47:29.034Z,7.30
2018-05-24T06:48:29.033Z,6.50
2018-05-24T06:49:29.037Z,7.10
2018-05-24T06:50:29.039Z,6.90
2018-05-24T06:51:29.035Z,7.40
2018-05-24T06:52:29.042Z,7.40
2018-05-24T06:53:29.039Z,6.50
2018-05-24T06:54:29.040Z,7.50
2018-05-24T06:55:29.032Z,6.70
2018-05-24T06:56:29.035Z,6.00
2018-05-24T06:57:29.030Z,5.50
2018-05-24T06:58:29.032Z,6.60
2018-05-24T06:59:29.041Z,5.90
2018-05-24T07:00:29.034Z,8.20
2018-05-24T07:01:29.030Z,8.10
2018-05-24T07:02:29.029Z,8.00
2018-05-24T07:03:29.032Z,6.60
2018-05-24T07:04:29.030Z,5.40
2018-05-24T07:05:29.030Z,6.50
2018-05-24T07:06:29.035Z,6.40
2018-05-24T07:07:29.035Z,6.20
2018-05-24T07:08:29.034Z,5.90
2018-05-24T07:09:29.033Z,6.80
2018-05-24T07:10:29.033Z,5.60
2018-05-24T07:11:29.027Z,5.50
2018-05-24T07:12:29.032Z,7.00
2018-05-24T07:13:29.027Z,6.00
2018-05-24T07:14:29.035Z,6.10
2018-05-24T07:15:29.031Z,5.90
2018-05-24T07:16:29.028Z,5.80
2018-05-24T07:17:29.038Z,5.90
2018-05-24T07:18:29.112Z,6.10
2018-05-24T07:19:29.028Z,7.30
2018-05-24T07:20:29.032Z,8.20
2018-05-24T07:21:29.028Z,5.50
2018-05-24T07:22:29.028Z,5.70
2018-05-24T07:23:29.027Z,5.60
2018-05-24T07:24:29.030Z,5.30
2018-05-24T07:25:29.037Z,8.40
2018-05-24T07:26:29.036Z,5.10
2018-05-24T07:27:29.028Z,7.70
2018-05-24T07:28:29.028Z,6.00
2018-05-24T07:29:29.028Z,6.60
2018-05-24T07:30:29.036Z,6.40
2018-05-24T07:31:29.028Z,6.10
2018-05-24T07:32:29.029Z,5.70
2018-05-24T07:33:29.027Z,7.10
2018-05-24T07:34:29.028Z,6.60
2018-05-24T07:35:29.028Z,6.80
2018-05-24T07:36:29.028Z,6.10
2018-05-24T07:37:29.036Z,6.10
2018-05-24T07:38:29.036Z,5.40
2018-05-24T07:39:29.035Z,6.10
2018-05-24T07:40:29.043Z,5.80
2018-05-24T07:41:29.032Z,6.40
2018-05-24T07:42:29.029Z,7.90
2018-05-24T07:43:29.031Z,7.10
2018-05-24T07:44:29.033Z,6.30
2018-05-24T07:45:29.036Z,6.40
2018-05-24T07:46:29.033Z,7.40
2018-05-24T07:47:29.033Z,6.90
2018-05-24T07:48:29.035Z,8.00
2018-05-24T07:49:29.033Z,8.70
2018-05-24T07:50:29.039Z,7.30
2018-05-24T07:51:29.035Z,7.70
2018-05-24T07:52:29.042Z,7.90
2018-05-24T07:53:29.035Z,7.40
2018-05-24T07:54:29.034Z,8.30
2018-05-24T07:55:29.042Z,7.50
2018-05-24T07:56:29.039Z,6.80
2018-05-24T07:57:29.044Z,6.80
2018-05-24T07:58:29.037Z,7.20
2018-05-24T07:59:29.050Z,7.70
2018-05-24T08:00:29.040Z,8.00
2018-05-24T08:01:29.047Z,6.70
2018-05-24T08:02:29.041Z,8.60
2018-05-24T08:03:29.041Z,6.80
2018-05-24T08:04:29.043Z,7.20
2018-05-24T08:05:29.047Z,7.00
2018-05-24T08:06:29.043Z,7.90
2018-05-24T08:07:29.044Z,7.50
2018-05-24T08:08:29.045Z,7.60
2018-05-24T08:09:29.047Z,8.10
2018-05-24T08:10:29.046Z,6.70
2018-05-24T08:11:29.047Z,7.10
2018-05-24T08:12:29.052Z,8.00
2018-05-24T08:13:29.049Z,7.60
2018-05-24T08:14:29.049Z,6.40
2018-05-24T08:15:29.050Z,8.10
2018-05-24T08:16:29.051Z,7.60
2018-05-24T08:17:29.054Z,6.60
2018-05-24T08:18:29.057Z,6.90
2018-05-24T08:19:29.056Z,7.00
2018-05-24T08:20:29.091Z,7.10
2018-05-24T08:21:29.058Z,7.40
2018-05-24T08:22:29.111Z,7.50
2018-05-24T08:23:29.057Z,7.20
2018-05-24T08:24:29.058Z,6.90
2018-05-24T08:25:29.062Z,7.10
2018-05-24T08:26:29.059Z,7.40
2018-05-24T08:27:29.058Z,7.90
2018-05-24T08:28:29.062Z,9.70
2018-05-24T08:29:29.059Z,9.40
2018-05-24T08:30:29.065Z,8.50
2018-05-24T08:31:29.063Z,7.50
2018-05-24T08:32:29.062Z,7.40
2018-05-24T08:33:29.063Z,7.40
2018-05-24T08:34:29.074Z,7.30
2018-05-24T08:35:29.066Z,6.90
2018-05-24T08:36:29.073Z,7.20
2018-05-24T08:37:29.068Z,6.00
2018-05-24T08:38:29.069Z,11.60
2018-05-24T08:39:29.069Z,8.60
2018-05-24T08:40:29.174Z,7.80
2018-05-24T08:41:29.069Z,9.70
2018-05-24T08:42:29.071Z,7.90
2018-05-24T08:43:29.073Z,9.80
2018-05-24T08:44:29.073Z,8.40
2018-05-24T08:45:29.077Z,9.00
2018-05-24T08:46:29.078Z,9.20
2018-05-24T08:47:29.147Z,8.40
2018-05-24T08:48:29.077Z,9.60
2018-05-24T08:49:29.084Z,7.40
2018-05-24T08:50:29.082Z,8.40
2018-05-24T08:51:29.087Z,8.10
2018-05-24T08:52:29.086Z,6.30
2018-05-24T08:53:29.121Z,7.90
2018-05-24T08:54:29.090Z,7.30
2018-05-24T08:55:29.092Z,6.90
2018-05-24T08:56:29.089Z,8.70
2018-05-24T08:57:29.091Z,6.50
2018-05-24T08:58:29.098Z,6.70
2018-05-24T08:59:29.096Z,6.80
2018-05-24T09:00:29.096Z,6.00
2018-05-24T09:01:29.202Z,7.10
2018-05-24T09:02:29.098Z,6.80
2018-05-24T09:03:29.099Z,8.80
2018-05-24T09:04:29.107Z,7.10
2018-05-24T09:05:29.101Z,7.60
2018-05-24T09:06:29.106Z,7.70
2018-05-24T09:07:29.112Z,7.70
2018-05-24T09:08:29.111Z,7.80
2018-05-24T09:09:29.109Z,8.10
2018-05-24T09:10:29.111Z,7.40
2018-05-24T09:11:29.111Z,7.50
2018-05-24T09:12:29.119Z,7.00
2018-05-24T09:13:29.115Z,10.10
2018-05-24T09:14:29.123Z,8.10
2018-05-24T09:15:29.127Z,8.90
2018-05-24T09:16:29.119Z,8.10
2018-05-24T09:17:29.121Z,7.80
2018-05-24T09:18:29.124Z,8.50
2018-05-24T09:19:29.123Z,11.20
2018-05-24T09:20:29.125Z,8.50
2018-05-24T09:21:29.127Z,7.70
2018-05-24T09:22:29.129Z,7.80
2018-05-24T09:23:29.132Z,8.30
2018-05-24T09:24:29.129Z,8.60
2018-05-24T09:25:29.133Z,9.10
2018-05-24T09:26:29.135Z,7.40
2018-05-24T09:27:29.213Z,11.10
2018-05-24T09:28:29.133Z,8.30
2018-05-24T09:29:29.156Z,9.50
2018-05-24T09:30:29.140Z,8.10
2018-05-24T09:31:29.138Z,8.60
2018-05-24T09:32:29.134Z,8.00
2018-05-24T09:33:29.137Z,9.40
2018-05-24T09:34:29.141Z,10.10
2018-05-24T09:35:29.143Z,7.70
2018-05-24T09:36:29.144Z,7.20
2018-05-24T09:37:29.140Z,7.50
2018-05-24T09:38:29.145Z,7.30
2018-05-24T09:39:29.150Z,6.70
2018-05-24T09:40:29.147Z,6.70
2018-05-24T09:41:29.155Z,6.70
2018-05-24T09:42:29.144Z,10.70
2018-05-24T09:43:29.150Z,7.50
2018-05-24T09:44:29.150Z,8.80
2018-05-24T09:45:29.147Z,7.30
2018-05-24T09:46:29.146Z,7.60
2018-05-24T09:47:29.148Z,7.20
2018-05-24T09:48:29.153Z,7.00
2018-05-24T09:49:29.150Z,8.40
2018-05-24T09:50:29.149Z,7.90
2018-05-24T09:51:29.156Z,6.80
2018-05-24T09:52:29.151Z,7.20
2018-05-24T09:53:29.154Z,6.30
2018-05-24T09:54:29.161Z,5.10
2018-05-24T09:55:29.162Z,5.30
2018-05-24T09:56:29.155Z,4.30
2018-05-24T09:57:29.157Z,5.40
2018-05-24T09:58:29.158Z,5.40
2018-05-24T09:59:29.158Z,4.30
2018-05-24T10:00:29.160Z,5.30
2018-05-24T10:01:29.164Z,4.90
2018-05-24T10:02:29.160Z,5.40
2018-05-24T10:03:29.161Z,5.30
2018-05-24T10:04:29.167Z,5.30
2018-05-24T10:05:29.162Z,4.80
2018-05-24T10:06:29.165Z,5.30
2018-05-24T10:07:29.163Z,4.20
2018-05-24T10:08:29.162Z,6.50
2018-05-24T10:09:29.164Z,5.80
2018-05-24T10:10:29.217Z,4.50
2018-05-24T10:11:29.165Z,6.00
2018-05-24T10:12:29.168Z,4.90
2018-05-24T10:13:29.167Z,5.10
2018-05-24T10:14:29.172Z,4.90
2018-05-24T10:15:29.172Z,4.10
2018-05-24T10:16:29.257Z,4.20
2018-05-24T10:17:29.171Z,4.40
2018-05-24T10:18:29.168Z,5.30
2018-05-24T10:19:29.175Z,4.50
2018-05-24T10:20:29.179Z,4.00
2018-05-24T10:21:29.175Z,5.30
2018-05-24T10:22:29.177Z,7.40
2018-05-24T10:23:29.237Z,4.20
2018-05-24T10:24:29.173Z,5.30
2018-05-24T10:25:29.176Z,3.70
2018-05-24T10:26:29.181Z,4.70
2018-05-24T10:27:29.187Z,5.30
2018-05-24T10:28:29.178Z,5.10
2018-05-24T10:29:29.221Z,4.80
2018-05-24T10:30:29.179Z,4.30
2018-05-24T10:31:29.187Z,4.80
2018-05-24T10:32:29.183Z,4.80
2018-05-24T10:33:29.185Z,4.20
2018-05-24T10:34:29.187Z,4.10
2018-05-24T10:35:29.210Z,4.40
2018-05-24T10:36:29.194Z,4.30
2018-05-24T10:37:29.192Z,4.00
2018-05-24T10:38:29.197Z,4.50
2018-05-24T10:39:29.203Z,4.10
2018-05-24T10:40:29.196Z,8.30
2018-05-24T10:41:29.203Z,5.70
2018-05-24T10:42:29.205Z,3.70
2018-05-24T10:43:29.200Z,3.00
2018-05-24T10:44:29.203Z,4.50
2018-05-24T10:45:29.210Z,3.70
2018-05-24T10:46:29.210Z,4.60
2018-05-24T10:47:29.213Z,4.00
2018-05-24T10:48:29.211Z,2.50
2018-05-24T10:49:29.215Z,2.60
2018-05-24T10:50:29.212Z,5.80
2018-05-24T10:51:29.219Z,3.50
2018-05-24T10:52:29.220Z,2.10
2018-05-24T10:53:29.219Z,2.00
2018-05-24T10:54:29.221Z,1.60
2018-05-24T10:55:29.227Z,1.60
2018-05-24T10:56:29.231Z,1.80
2018-05-24T10:57:29.232Z,2.00
2018-05-24T10:58:29.234Z,2.70
2018-05-24T10:59:29.238Z,2.10
2018-05-24T11:00:29.232Z,2.70
2018-05-24T11:01:29.236Z,1.80
2018-05-24T11:02:29.236Z,1.60
2018-05-24T11:03:29.243Z,2.30
2018-05-24T11:04:29.242Z,1.90
2018-05-24T11:05:29.245Z,2.40
2018-05-24T11:06:29.253Z,1.60
2018-05-24T11:07:29.249Z,1.90
2018-05-24T11:08:29.249Z,1.60
2018-05-24T11:09:29.272Z,1.30
2018-05-24T11:10:29.253Z,1.70
2018-05-24T11:11:29.257Z,1.70
2018-05-24T11:12:29.257Z,2.00
2018-05-24T11:13:29.259Z,2.00
2018-05-24T11:14:29.269Z,1.80
2018-05-24T11:15:29.266Z,3.50
2018-05-24T11:16:29.266Z,2.90
2018-05-24T11:17:29.288Z,2.40
2018-05-24T11:18:29.273Z,3.00
2018-05-24T11:19:29.272Z,5.00
2018-05-24T11:20:29.275Z,5.20
2018-05-24T11:21:29.278Z,3.30
2018-05-24T11:22:29.280Z,2.90
2018-05-24T11:23:29.291Z,3.00
2018-05-24T11:24:29.285Z,2.50
2018-05-24T11:25:29.292Z,2.80
2018-05-24T11:26:29.289Z,2.70
2018-05-24T11:27:29.309Z,2.10
2018-05-24T11:28:29.300Z,2.40
2018-05-24T11:29:29.300Z,2.90
2018-05-24T11:30:29.297Z,2.20
2018-05-24T11:31:29.302Z,2.30
2018-05-24T11:32:29.302Z,2.20
2018-05-24T11:33:29.304Z,2.00
2018-05-24T11:34:29.305Z,2.00
2018-05-24T11:35:29.308Z,2.70
2018-05-24T11:36:29.311Z,1.70
2018-05-24T11:37:29.312Z,3.50
2018-05-24T11:38:29.320Z,2.00
2018-05-24T11:39:29.315Z,2.90
2018-05-24T11:40:29.326Z,2.00
2018-05-24T11:41:29.322Z,1.70
2018-05-24T11:42:29.323Z,2.00
2018-05-24T11:43:29.510Z,4.40
2018-05-24T11:44:29.332Z,3.20
2018-05-24T11:45:29.332Z,2.50
2018-05-24T11:46:29.331Z,2.00
2018-05-24T11:47:29.336Z,2.20
2018-05-24T11:48:29.340Z,2.90
2018-05-24T11:49:29.351Z,3.20
2018-05-24T11:50:29.347Z,2.00
2018-05-24T11:51:29.348Z,2.30
2018-05-24T11:52:29.346Z,2.00
2018-05-24T11:53:29.354Z,2.20
2018-05-24T11:54:29.352Z,3.00
2018-05-24T11:55:29.352Z,2.30
2018-05-24T11:57:16.791Z,2.70
2018-05-24T11:58:16.799Z,3.50
2018-05-24T11:59:16.802Z,5.20
2018-05-24T12:00:16.804Z,3.60
2018-05-24T12:01:16.802Z,2.90
2018-05-24T12:02:16.804Z,3.40
2018-05-24T12:07:25.809Z,2.60
2018-05-24T12:08:25.810Z,2.60
2018-05-24T12:09:25.820Z,3.40
2018-05-24T12:10:25.823Z,3.40
2018-05-24T12:11:25.818Z,3.10
2018-05-24T12:12:25.816Z,3.50
2018-05-24T12:13:25.818Z,2.40
2018-05-24T12:14:25.820Z,3.70
2018-05-24T12:15:25.829Z,3.60
2018-05-24T12:16:25.831Z,4.00
2018-05-24T12:17:25.827Z,3.00
2018-05-24T12:18:25.836Z,3.40
2018-05-24T12:19:25.837Z,3.70
2018-05-24T12:20:25.837Z,3.60
2018-05-24T12:21:25.840Z,3.20
2018-05-24T12:22:25.843Z,3.90
2018-05-24T12:23:25.844Z,2.50
2018-05-24T12:24:25.852Z,4.80
2018-05-24T12:25:25.852Z,2.80
2018-05-24T12:26:25.857Z,2.50
2018-05-24T12:27:25.855Z,2.80
2018-05-24T12:28:25.871Z,3.00
2018-05-24T12:29:25.867Z,2.50
2018-05-24T12:30:25.871Z,3.20
2018-05-24T12:31:25.870Z,2.70
2018-05-24T12:32:25.872Z,3.40
2018-05-24T12:33:25.875Z,3.80
2018-05-24T12:34:25.880Z,2.30
2018-05-24T12:35:25.947Z,4.00
2018-05-24T12:36:25.888Z,5.80
2018-05-24T12:37:25.892Z,2.70
2018-05-24T12:38:25.890Z,3.30
2018-05-24T12:39:25.897Z,2.60
2018-05-24T12:40:25.895Z,3.30
2018-05-24T12:41:25.897Z,4.00
2018-05-24T12:42:25.902Z,2.80
2018-05-24T12:43:25.909Z,2.70
2018-05-24T12:44:25.908Z,2.40
2018-05-24T12:45:25.911Z,2.50
2018-05-24T12:46:25.914Z,3.00
2018-05-24T12:47:25.924Z,3.60
2018-05-24T12:48:25.922Z,2.70
2018-05-24T12:49:25.929Z,2.70
2018-05-24T12:50:25.926Z,2.30
2018-05-24T12:51:25.929Z,4.80
2018-05-24T12:52:25.934Z,2.70
2018-05-24T12:53:25.937Z,4.60
2018-05-24T12:54:25.941Z,3.20
2018-05-24T12:55:25.953Z,2.20
2018-05-24T12:56:25.955Z,3.50
2018-05-24T12:57:25.956Z,4.40
2018-05-24T12:58:25.951Z,2.40
2018-05-24T12:59:25.959Z,2.40
2018-05-24T13:00:25.977Z,2.40
2018-05-24T13:01:26.032Z,3.90
2018-05-24T13:02:25.964Z,2.30
2018-05-24T13:03:25.971Z,3.00
2018-05-24T13:04:25.969Z,2.70
2018-05-24T13:05:25.976Z,2.90
2018-05-24T13:06:25.980Z,3.50
2018-05-24T13:07:25.981Z,3.80
2018-05-24T13:08:25.985Z,2.80
2018-05-24T13:09:25.987Z,4.40
2018-05-24T13:10:25.992Z,3.10
2018-05-24T13:11:25.990Z,2.80
2018-05-24T13:12:25.994Z,4.10
2018-05-24T13:13:26.016Z,5.10
2018-05-24T13:14:26.005Z,3.70
2018-05-24T13:15:26.010Z,3.80
2018-05-24T13:16:26.014Z,3.50
2018-05-24T13:17:26.016Z,3.50
2018-05-24T13:18:26.015Z,3.90
2018-05-24T13:19:26.023Z,3.80
2018-05-24T13:20:26.021Z,3.00
2018-05-24T13:21:26.031Z,4.10
2018-05-24T13:22:26.026Z,5.10
2018-05-24T13:23:26.030Z,3.30
2018-05-24T13:24:26.164Z,3.20
2018-05-24T13:25:26.037Z,3.20
2018-05-24T13:26:26.100Z,4.30
2018-05-24T13:27:26.048Z,4.80
2018-05-24T13:28:26.045Z,3.70
2018-05-24T13:29:26.047Z,2.70
2018-05-24T13:30:26.051Z,3.60
2018-05-24T13:31:26.057Z,4.90
2018-05-24T13:32:26.063Z,3.60
2018-05-24T13:33:26.065Z,2.80
2018-05-24T13:34:26.202Z,2.40
2018-05-24T13:35:26.066Z,3.60
2018-05-24T13:36:26.069Z,3.20
2018-05-24T13:37:26.079Z,3.70
2018-05-24T13:38:26.074Z,3.30
2018-05-24T13:39:26.078Z,2.90
2018-05-24T13:40:26.090Z,4.20
2018-05-24T13:41:26.083Z,2.80
2018-05-24T13:42:26.086Z,4.80
2018-05-24T13:43:26.089Z,2.50
2018-05-24T13:44:26.098Z,3.40
2018-05-24T13:45:26.101Z,2.90
2018-05-24T13:46:26.104Z,5.40
2018-05-24T13:47:26.113Z,3.30
2018-05-24T13:48:26.108Z,2.60
2018-05-24T13:49:26.110Z,3.00
2018-05-24T13:50:26.112Z,2.80
2018-05-24T13:51:26.118Z,3.40
2018-05-24T13:52:26.123Z,2.40
2018-05-24T13:53:26.121Z,3.40
2018-05-24T13:54:26.131Z,3.50
2018-05-24T13:55:26.132Z,3.50
2018-05-24T13:56:26.132Z,3.20
2018-05-24T13:57:26.140Z,3.20
2018-05-24T13:58:26.135Z,3.40
2018-05-24T13:59:26.145Z,4.40
2018-05-24T14:00:26.143Z,3.90
2018-05-24T14:01:26.150Z,2.90
2018-05-24T14:02:26.158Z,4.50
2018-05-24T14:03:26.156Z,2.40
2018-05-24T14:04:26.161Z,2.60
2018-05-24T14:05:26.163Z,4.60
2018-05-24T14:06:26.166Z,3.60
2018-05-24T14:07:26.165Z,3.00
2018-05-24T14:08:26.175Z,3.00
2018-05-24T14:09:26.191Z,3.00
2018-05-24T14:10:26.181Z,2.50
2018-05-24T14:11:26.178Z,3.60
2018-05-24T14:12:26.186Z,2.40
2018-05-24T14:13:26.183Z,2.90